Time;durP1;ratioP1;P1;durP2;ratioP2;P2;SDS_P1;SDS_P2;PMS_P1;PMS_P2;Temp;Humidity;BMP_temperature;BMP_pressure;BME280_temperature;BME280_humidity;BME280_pressure;Samples;Min_cycle;Max_cycle;Signal;HPM_P1;HPM_P2
2023/05/16 00:02:57;;;;;;;1999.90;999.90;;;12.50;99.90;;;;;;6744491;88;20221;-79
2023/05/16 00:13:00;;;;;;;1999.90;999.90;;;12.40;99.90;;;;;;6745102;88;20185;-81
2023/05/16 00:23:42;;;;;;;1999.90;999.90;;;12.00;99.90;;;;;;6748232;77;20177;-83
2023/05/16 00:33:42;;;;;;;1999.90;999.90;;;11.60;99.90;;;;;;6767083;88;20150;-82
2023/05/16 00:43:43;;;;;;;1999.90;999.90;;;11.10;99.90;;;;;;6763399;88;20184;-81
2023/05/16 00:53:44;;;;;;;1999.90;999.90;;;11.10;99.90;;;;;;6763403;88;20153;-79
2023/05/16 01:03:45;;;;;;;1999.90;999.90;;;11.00;99.90;;;;;;6766682;88;20178;-79
2023/05/16 01:14:04;;;;;;;1999.90;999.90;;;10.90;99.90;;;;;;6768801;87;20190;-79
2023/05/16 01:24:24;;;;;;;1999.90;999.90;;;10.80;99.90;;;;;;6752263;88;20173;-79
2023/05/16 01:34:25;;;;;;;1999.90;999.90;;;10.80;99.90;;;;;;6752550;88;20169;-79
2023/05/16 01:44:34;;;;;;;1999.90;999.90;;;10.80;99.90;;;;;;6752269;88;20210;-79
2023/05/16 01:54:37;;;;;;;1999.90;999.90;;;10.80;99.90;;;;;;6752020;88;20138;-82
2023/05/16 02:04:38;;;;;;;1999.90;999.90;;;10.80;99.90;;;;;;6748412;88;20165;-78
2023/05/16 02:14:38;;;;;;;1999.90;999.90;;;10.80;99.90;;;;;;6769144;88;20182;-80
2023/05/16 02:24:39;;;;;;;1999.90;999.90;;;10.70;99.90;;;;;;6768477;88;20202;-79
2023/05/16 02:34:39;;;;;;;1999.90;999.90;;;10.60;99.90;;;;;;6764929;88;20156;-79
2023/05/16 02:44:40;;;;;;;1999.90;999.90;;;10.30;99.90;;;;;;6768630;88;20161;-79
2023/05/16 02:54:40;;;;;;;1999.90;999.90;;;10.30;99.90;;;;;;6768663;88;20165;-79
2023/05/16 03:04:41;;;;;;;1999.90;999.90;;;10.20;99.90;;;;;;6764484;88;20156;-80
2023/05/16 03:14:42;;;;;;;1999.90;999.90;;;10.10;99.90;;;;;;6768152;88;20856;-80
2023/05/16 03:24:42;;;;;;;1999.90;999.90;;;10.00;99.90;;;;;;6767966;88;20262;-79
2023/05/16 03:34:43;;;;;;;1999.90;999.90;;;9.70;99.90;;;;;;6767969;88;20169;-79
2023/05/16 03:44:43;;;;;;;1999.90;999.90;;;9.50;99.90;;;;;;6767873;88;20188;-79
2023/05/16 03:54:44;;;;;;;1999.90;999.90;;;9.40;99.90;;;;;;6764587;88;20174;-78
2023/05/16 04:04:44;;;;;;;1999.90;999.90;;;9.30;99.90;;;;;;6767955;88;20154;-79
2023/05/16 04:14:46;;;;;;;1999.90;999.90;;;9.30;99.90;;;;;;6767624;88;20186;-79
2023/05/16 04:24:46;;;;;;;1999.90;999.90;;;9.50;99.90;;;;;;6767221;88;20180;-79
2023/05/16 04:34:48;;;;;;;1999.90;999.90;;;9.20;99.90;;;;;;6766867;88;20192;-80
2023/05/16 04:44:49;;;;;;;1999.90;999.90;;;9.20;99.90;;;;;;6763261;88;20212;-80
2023/05/16 04:54:51;;;;;;;1999.90;999.90;;;9.10;99.90;;;;;;6767153;88;20157;-79
2023/05/16 05:04:51;;;;;;;1999.90;999.90;;;9.20;99.90;;;;;;6767104;88;20267;-79
2023/05/16 05:14:52;;;;;;;1999.90;999.90;;;8.90;99.90;;;;;;6767010;88;20177;-80
2023/05/16 05:24:53;;;;;;;1999.90;999.90;;;8.90;99.90;;;;;;6766563;88;20159;-79
2023/05/16 05:34:53;;;;;;;1999.90;999.90;;;8.90;99.90;;;;;;6764221;88;20693;-80
2023/05/16 05:44:54;;;;;;;1999.90;999.90;;;8.90;99.90;;;;;;6765980;88;20172;-81
2023/05/16 05:54:54;;;;;;;1999.90;999.90;;;8.90;99.90;;;;;;6766056;88;20176;-80
2023/05/16 06:04:55;;;;;;;1999.90;999.90;;;9.10;99.90;;;;;;6765178;88;20516;-81
2023/05/16 06:14:55;;;;;;;1999.90;999.90;;;9.30;99.90;;;;;;6764389;88;20338;-81
2023/05/16 06:24:56;;;;;;;1999.90;999.90;;;9.50;99.90;;;;;;6751551;77;20210;-76
2023/05/16 06:34:56;;;;;;;1999.90;999.90;;;9.70;99.90;;;;;;6731505;88;20645;-77
2023/05/16 06:44:57;;;;;;;1999.90;999.90;;;10.00;99.90;;;;;;6728256;88;20663;-77
2023/05/16 06:54:58;;;;;;;1999.90;999.90;;;10.40;99.90;;;;;;6731081;88;20182;-77
2023/05/16 07:04:58;;;;;;;1999.90;999.90;;;10.50;99.90;;;;;;6731396;88;20880;-77
2023/05/16 07:14:59;;;;;;;1999.90;999.90;;;10.60;99.90;;;;;;6730463;88;20211;-77
2023/05/16 07:25:00;;;;;;;1999.90;999.90;;;11.00;99.90;;;;;;6726839;88;20194;-77
2023/05/16 07:35:00;;;;;;;1999.90;999.90;;;11.00;99.90;;;;;;6732599;88;20228;-78
2023/05/16 07:45:07;;;;;;;1999.90;999.90;;;11.90;99.90;;;;;;6730306;88;20204;-77
2023/05/16 07:55:12;;;;;;;1999.90;999.90;;;12.30;99.90;;;;;;6730245;88;20655;-78
2023/05/16 08:05:16;;;;;;;1999.90;999.90;;;11.60;99.90;;;;;;6730275;88;20628;-78
2023/05/16 08:15:20;;;;;;;1999.90;999.90;;;12.70;99.90;;;;;;6731408;88;20186;-77
2023/05/16 08:25:45;;;;;;;1999.90;999.90;;;13.30;99.90;;;;;;6731397;88;20199;-77
2023/05/16 08:36:08;;;;;;;1999.90;999.90;;;13.00;99.90;;;;;;6732786;88;20189;-78
2023/05/16 08:46:12;;;;;;;1999.90;999.90;;;13.00;99.90;;;;;;6747081;88;20221;-78
2023/05/16 08:56:16;;;;;;;1999.90;999.90;;;13.20;99.90;;;;;;6736959;88;20226;-78
2023/05/16 09:06:17;;;;;;;1999.90;999.90;;;13.30;99.90;;;;;;6738440;88;20204;-78
2023/05/16 09:16:19;;;;;;;1999.90;999.90;;;14.30;99.90;;;;;;6737612;88;20805;-78
2023/05/16 09:26:21;;;;;;;1999.90;999.90;;;15.50;99.90;;;;;;6731795;88;20234;-79
2023/05/16 09:36:25;;;;;;;1999.90;999.90;;;16.10;99.90;;;;;;6737716;88;20285;-78
2023/05/16 09:46:27;;;;;;;1999.90;999.90;;;15.60;99.90;;;;;;6734072;88;20154;-78
2023/05/16 09:56:31;;;;;;;1999.90;999.90;;;16.20;99.90;;;;;;6733774;88;20199;-79
2023/05/16 10:06:33;;;;;;;1999.90;999.90;;;17.20;99.90;;;;;;6732669;88;20197;-77
2023/05/16 10:16:34;;;;;;;1999.90;999.90;;;17.80;99.00;;;;;;6728483;88;20291;-77
2023/05/16 10:26:35;;;;;;;1999.90;999.90;;;18.10;97.70;;;;;;6732050;88;20327;-78
2023/05/16 10:36:46;;;;;;;1999.90;999.90;;;17.20;98.40;;;;;;6728010;88;20181;-78
2023/05/16 10:46:47;;;;;;;1999.90;999.90;;;17.90;97.20;;;;;;6730206;88;20181;-78
2023/05/16 10:56:56;;;;;;;1999.90;999.90;;;18.30;97.00;;;;;;6734509;88;20327;-78
2023/05/16 11:07:06;;;;;;;1999.90;999.90;;;17.00;96.90;;;;;;6734259;88;20440;-78
2023/05/16 11:17:28;;;;;;;1999.90;999.90;;;17.20;97.60;;;;;;6735156;88;20219;-78
2023/05/16 11:27:55;;;;;;;1999.90;999.90;;;18.20;97.30;;;;;;6732172;88;20706;-78
2023/05/16 11:37:57;;;;;;;1999.90;999.90;;;18.00;94.40;;;;;;6730226;88;20220;-78
2023/05/16 11:48:02;;;;;;;1999.90;999.90;;;19.50;94.20;;;;;;6734171;88;20264;-79
2023/05/16 11:58:29;;;;;;;1999.90;999.90;;;20.10;93.60;;;;;;6728140;88;20193;-78
2023/05/16 12:08:35;;;;;;;1999.90;999.90;;;18.70;93.80;;;;;;6734233;88;20197;-79
2023/05/16 12:18:37;;;;;;;1999.90;999.90;;;18.20;93.10;;;;;;6728923;88;20179;-78
2023/05/16 12:28:38;;;;;;;1999.90;999.90;;;18.20;94.30;;;;;;6733162;88;20272;-78
2023/05/16 12:38:39;;;;;;;1999.90;999.90;;;17.70;94.10;;;;;;6737400;88;20216;-77
2023/05/16 12:48:43;;;;;;;1999.90;999.90;;;17.30;95.50;;;;;;6735640;88;20204;-78
2023/05/16 12:58:43;;;;;;;1999.90;999.90;;;18.50;95.20;;;;;;6730335;88;20185;-78
2023/05/16 13:08:44;;;;;;;1999.90;999.90;;;19.30;94.20;;;;;;6727950;88;20692;-78
2023/05/16 13:18:45;;;;;;;1999.90;999.90;;;20.30;92.40;;;;;;6732897;88;20203;-78
2023/05/16 13:28:46;;;;;;;1999.90;999.90;;;19.40;92.20;;;;;;6727586;88;20192;-78
2023/05/16 13:38:47;;;;;;;1999.90;999.90;;;19.00;92.30;;;;;;6730011;87;20226;-78
2023/05/16 13:48:48;;;;;;;1999.90;999.90;;;17.90;94.40;;;;;;6728631;88;20318;-78
2023/05/16 13:58:50;;;;;;;1999.90;999.90;;;16.70;96.30;;;;;;6730982;88;20207;-78
2023/05/16 14:08:51;;;;;;;1999.90;999.90;;;16.80;97.20;;;;;;6731980;88;20180;-78
2023/05/16 14:18:51;;;;;;;1999.90;999.90;;;16.90;97.00;;;;;;6728727;88;20193;-78
2023/05/16 14:28:52;;;;;;;1999.90;999.90;;;17.20;96.40;;;;;;6734181;88;20181;-78
2023/05/16 14:38:52;;;;;;;1999.90;999.90;;;17.30;96.00;;;;;;6737453;88;20342;-78
2023/05/16 14:48:53;;;;;;;1999.90;999.90;;;18.30;94.70;;;;;;6738800;88;20805;-78
2023/05/16 14:58:53;;;;;;;1999.90;999.90;;;18.00;92.90;;;;;;6732021;88;20713;-79
2023/05/16 15:08:54;;;;;;;1999.90;999.90;;;17.00;93.00;;;;;;6730835;88;20327;-78
2023/05/16 15:18:54;;;;;;;1999.90;999.90;;;17.00;94.50;;;;;;6734529;88;20193;-79
2023/05/16 15:28:55;;;;;;;1999.90;999.90;;;17.70;93.10;;;;;;6728454;88;20230;-78
2023/05/16 15:38:56;;;;;;;1999.90;999.90;;;17.00;92.90;;;;;;6730747;88;20236;-78
2023/05/16 15:48:56;;;;;;;1999.90;999.90;;;16.50;93.00;;;;;;6727415;88;20286;-79
2023/05/16 15:58:57;;;;;;;1999.90;999.90;;;16.00;94.10;;;;;;6732588;88;20189;-79
2023/05/16 16:08:58;;;;;;;1999.90;999.90;;;17.20;94.00;;;;;;6732111;88;20204;-78
2023/05/16 16:18:58;;;;;;;1999.90;999.90;;;17.00;94.00;;;;;;6730290;88;21087;-77
2023/05/16 16:28:59;;;;;;;1999.90;999.90;;;16.60;94.60;;;;;;6724965;88;20188;-76
2023/05/16 16:38:59;;;;;;;1999.90;999.90;;;15.90;95.00;;;;;;6739690;88;20426;-78
2023/05/16 16:49:00;;;;;;;1999.90;999.90;;;15.60;95.30;;;;;;6728373;88;20241;-78
2023/05/16 16:59:00;;;;;;;1999.90;999.90;;;16.00;95.40;;;;;;6731991;88;20713;-77
2023/05/16 17:09:03;;;;;;;1999.90;999.90;;;15.80;95.30;;;;;;6727919;88;20308;-79
2023/05/16 17:19:04;;;;;;;1999.90;999.90;;;15.30;96.10;;;;;;6731974;88;20196;-78
2023/05/16 17:29:05;;;;;;;1999.90;999.90;;;15.00;96.20;;;;;;6733624;88;20362;-78
2023/05/16 17:39:07;;;;;;;1999.90;999.90;;;15.20;96.80;;;;;;6733123;88;20220;-79
2023/05/16 17:49:08;;;;;;;1999.90;999.90;;;14.70;97.20;;;;;;6738948;88;20193;-81
2023/05/16 17:59:09;;;;;;;1999.90;999.90;;;14.40;98.70;;;;;;6752041;88;20184;-81
2023/05/16 18:09:10;;;;;;;1999.90;999.90;;;14.20;98.60;;;;;;6749450;88;20226;-82
2023/05/16 18:19:11;;;;;;;1999.90;999.90;;;14.30;99.00;;;;;;6747149;88;22971;-79
2023/05/16 18:29:11;;;;;;;1999.90;999.90;;;13.90;99.90;;;;;;6727826;88;20216;-80
2023/05/16 18:39:12;;;;;;;1999.90;999.90;;;13.80;99.90;;;;;;6730142;88;20177;-80
2023/05/16 18:49:13;;;;;;;1999.90;999.90;;;13.70;99.60;;;;;;6731193;88;20245;-80
2023/05/16 18:59:13;;;;;;;1999.90;999.90;;;13.40;99.70;;;;;;6732325;88;20205;-81
2023/05/16 19:09:14;;;;;;;1999.90;999.90;;;13.40;99.90;;;;;;6736840;88;20216;-81
2023/05/16 19:19:15;;;;;;;1999.90;999.90;;;13.30;99.90;;;;;;6740047;88;20698;-83
2023/05/16 19:29:15;;;;;;;1999.90;999.90;;;13.20;99.90;;;;;;6744805;88;20181;-83
2023/05/16 19:39:16;;;;;;;1999.90;999.90;;;13.00;99.90;;;;;;6743864;88;20173;-81
2023/05/16 19:49:16;;;;;;;1999.90;999.90;;;12.90;99.90;;;;;;6744297;88;20565;-82
2023/05/16 19:59:17;;;;;;;1999.90;999.90;;;12.90;99.90;;;;;;6744369;88;20686;-82
2023/05/16 20:09:17;;;;;;;1999.90;999.90;;;12.80;99.90;;;;;;6741215;88;20197;-79
2023/05/16 20:19:18;;;;;;;1999.90;999.90;;;12.90;99.90;;;;;;6739331;88;20818;-81
2023/05/16 20:29:19;;;;;;;1999.90;999.90;;;12.70;99.90;;;;;;6743439;88;21081;-80
2023/05/16 20:39:19;;;;;;;1999.90;999.90;;;12.70;99.90;;;;;;6747181;88;20540;-80
2023/05/16 20:49:20;;;;;;;1999.90;999.90;;;12.60;99.90;;;;;;6741455;88;20217;-80
2023/05/16 20:59:20;;;;;;;1999.90;999.90;;;12.60;99.90;;;;;;6739575;88;20252;-80
2023/05/16 21:09:21;;;;;;;1999.90;999.90;;;12.60;99.90;;;;;;6737794;88;20225;-79
2023/05/16 21:19:21;;;;;;;1999.90;999.90;;;12.50;99.90;;;;;;6735453;88;20231;-80
2023/05/16 21:29:22;;;;;;;1999.90;999.90;;;12.40;99.90;;;;;;6736173;88;20202;-79
2023/05/16 21:39:22;;;;;;;1999.90;999.90;;;12.10;99.90;;;;;;6737213;88;20259;-80
2023/05/16 21:49:23;;;;;;;1999.90;999.90;;;12.00;99.90;;;;;;6738557;88;20214;-80
2023/05/16 21:59:23;;;;;;;1999.90;999.90;;;12.00;99.90;;;;;;6739154;88;20189;-80
2023/05/16 22:09:24;;;;;;;1999.90;999.90;;;12.00;99.90;;;;;;6737032;88;20202;-80
2023/05/16 22:19:25;;;;;;;1999.90;999.90;;;12.00;99.90;;;;;;6733063;88;20201;-80
2023/05/16 22:29:25;;;;;;;1999.90;999.90;;;11.80;99.90;;;;;;6733072;88;20204;-80
2023/05/16 22:39:26;;;;;;;1999.90;999.90;;;11.60;99.90;;;;;;6737690;88;20200;-80
2023/05/16 22:49:26;;;;;;;1999.90;999.90;;;11.60;99.90;;;;;;6737135;88;20217;-80
2023/05/16 22:59:27;;;;;;;1999.90;999.90;;;11.40;99.90;;;;;;6737313;88;20204;-82
2023/05/16 23:09:27;;;;;;;1999.90;999.90;;;11.50;99.90;;;;;;6735863;88;20223;-81
2023/05/16 23:19:28;;;;;;;1999.90;999.90;;;11.30;99.90;;;;;;6736247;88;20543;-81
2023/05/16 23:29:28;;;;;;;1999.90;999.90;;;11.40;99.90;;;;;;6735854;88;20193;-81
2023/05/16 23:39:29;;;;;;;1999.90;999.90;;;11.30;99.90;;;;;;6731747;88;20226;-80
2023/05/16 23:49:29;;;;;;;1999.90;999.90;;;11.20;99.90;;;;;;6736291;88;20220;-81
2023/05/16 23:59:30;;;;;;;1999.90;999.90;;;11.10;99.90;;;;;;6736929;88;20214;-81
